Time,TemperatureF,DewpointF,PressureIn,WindDirection,WindDirectionDegrees,WindSpeedMPH,WindSpeedGustMPH,Humidity,HourlyPrecipIn,Conditions,Clouds,dailyrainin,SoftwareType,DateUTC
2013-05-11 00:09:00,70.7,65.0,30.02,South,170,0.0,6.0,81,0.00,,,0.00,weatherlink.com 1.10,2013-05-11 04:09:00,
2013-05-11 00:25:00,71.0,65.0,30.02,WSW,248,1.0,4.0,82,0.00,,,0.00,weatherlink.com 1.10,2013-05-11 04:25:00,
2013-05-11 00:39:00,71.2,66.0,30.02,SW,234,1.0,4.0,83,0.00,,,0.00,weatherlink.com 1.10,2013-05-11 04:39:00,
2013-05-11 00:54:00,71.5,66.0,30.00,WSW,254,3.0,6.0,83,0.00,,,0.00,weatherlink.com 1.10,2013-05-11 04:54:00,
2013-05-11 01:09:00,71.7,66.0,30.00,WSW,254,2.0,6.0,83,0.00,,,0.00,weatherlink.com 1.10,2013-05-11 05:09:00,
2013-05-11 01:24:00,71.7,67.0,30.00,WSW,244,2.0,6.0,84,0.00,,,0.00,weatherlink.com 1.10,2013-05-11 05:24:00,
2013-05-11 01:39:00,71.5,67.0,30.00,WSW,253,0.0,5.0,85,0.00,,,0.00,weatherlink.com 1.10,2013-05-11 05:39:00,
2013-05-11 01:54:00,71.5,67.0,30.00,West,265,1.0,6.0,86,0.00,,,0.00,weatherlink.com 1.10,2013-05-11 05:54:00,
2013-05-11 02:09:00,71.3,67.0,30.00,SW,215,0.0,8.0,87,0.00,,,0.00,weatherlink.com 1.10,2013-05-11 06:09:00,
2013-05-11 02:24:00,70.9,67.0,30.00,WNW,296,0.0,3.0,87,0.00,,,0.00,weatherlink.com 1.10,2013-05-11 06:24:00,
2013-05-11 02:39:00,70.7,67.0,30.00,SW,219,1.0,4.0,88,0.00,,,0.00,weatherlink.com 1.10,2013-05-11 06:39:00,
2013-05-11 02:54:00,70.4,67.0,30.00,WSW,240,0.0,4.0,88,0.00,,,0.00,weatherlink.com 1.10,2013-05-11 06:54:00,
2013-05-11 03:09:00,70.2,67.0,30.00,WSW,246,0.0,3.0,89,0.00,,,0.00,weatherlink.com 1.10,2013-05-11 07:09:00,
2013-05-11 03:24:00,70.1,67.0,29.99,WSW,257,0.0,3.0,89,0.00,,,0.00,weatherlink.com 1.10,2013-05-11 07:24:00,
2013-05-11 03:39:00,69.8,67.0,29.99,SW,219,0.0,3.0,90,0.00,,,0.00,weatherlink.com 1.10,2013-05-11 07:39:00,
2013-05-11 03:54:00,69.8,67.0,29.98,WSW,254,0.0,0.0,90,0.00,,,0.00,weatherlink.com 1.10,2013-05-11 07:54:00,
2013-05-11 04:09:00,69.9,67.0,29.98,West,278,1.0,2.0,90,0.00,,,0.00,weatherlink.com 1.10,2013-05-11 08:09:00,
2013-05-11 04:24:00,70.1,67.0,29.98,West,268,0.0,7.0,90,0.00,,,0.00,weatherlink.com 1.10,2013-05-11 08:24:00,
2013-05-11 04:39:00,70.1,67.0,29.98,WSW,250,2.0,2.0,90,0.00,,,0.00,weatherlink.com 1.10,2013-05-11 08:39:00,
2013-05-11 04:54:00,70.0,67.0,29.97,West,265,0.0,2.0,90,0.00,,,0.00,weatherlink.com 1.10,2013-05-11 08:54:00,
2013-05-11 05:09:00,69.8,67.0,29.97,SSW,212,0.0,2.0,91,0.00,,,0.00,weatherlink.com 1.10,2013-05-11 09:09:00,
2013-05-11 05:24:00,69.6,67.0,29.97,WSW,250,0.0,3.0,91,0.00,,,0.00,weatherlink.com 1.10,2013-05-11 09:24:00,
2013-05-11 05:39:00,69.3,67.0,29.97,WSW,250,0.0,1.0,92,0.00,,,0.00,weatherlink.com 1.10,2013-05-11 09:39:00,
2013-05-11 05:54:00,68.9,67.0,29.96,SSW,206,0.0,0.0,92,0.00,,,0.00,weatherlink.com 1.10,2013-05-11 09:54:00,
2013-05-11 06:09:00,68.9,67.0,29.97,West,260,0.0,0.0,93,0.00,,,0.00,weatherlink.com 1.10,2013-05-11 10:09:00,
2013-05-11 06:24:00,69.0,67.0,29.97,WSW,241,0.0,0.0,93,0.00,,,0.00,weatherlink.com 1.10,2013-05-11 10:24:00,
2013-05-11 06:39:00,69.0,67.0,29.97,West,262,0.0,1.0,93,0.00,,,0.00,weatherlink.com 1.10,2013-05-11 10:39:00,
2013-05-11 06:54:00,69.4,67.0,29.97,West,262,0.0,3.0,92,0.00,,,0.00,weatherlink.com 1.10,2013-05-11 10:54:00,
2013-05-11 07:09:00,69.9,68.0,29.97,SW,227,0.0,1.0,92,0.00,,,0.00,weatherlink.com 1.10,2013-05-11 11:09:00,
2013-05-11 07:24:00,70.4,68.0,29.97,SSW,193,0.0,0.0,92,0.00,,,0.00,weatherlink.com 1.10,2013-05-11 11:24:00,
2013-05-11 07:39:00,70.9,68.0,29.97,SW,226,0.0,3.0,91,0.00,,,0.00,weatherlink.com 1.10,2013-05-11 11:39:00,
2013-05-11 07:54:00,71.3,69.0,29.96,SSE,154,0.0,3.0,91,0.00,,,0.00,weatherlink.com 1.10,2013-05-11 11:54:00,
2013-05-11 08:10:00,71.9,69.0,29.96,SSE,154,0.0,0.0,91,0.00,,,0.00,weatherlink.com 1.10,2013-05-11 12:10:00,
2013-05-11 08:25:00,72.6,70.0,29.96,South,178,3.0,3.0,90,0.00,,,0.00,weatherlink.com 1.10,2013-05-11 12:25:00,
2013-05-11 08:40:00,73.4,70.0,29.95,SW,227,0.0,4.0,89,0.00,,,0.00,weatherlink.com 1.10,2013-05-11 12:40:00,
2013-05-11 08:55:00,74.6,71.0,29.95,South,189,0.0,3.0,88,0.00,,,0.00,weatherlink.com 1.10,2013-05-11 12:55:00,
2013-05-11 09:10:00,75.9,71.0,29.95,West,277,2.0,5.0,84,0.00,,,0.00,weatherlink.com 1.10,2013-05-11 13:10:00,
2013-05-11 09:25:00,77.0,71.0,29.95,WSW,253,3.0,6.0,82,0.00,,,0.00,weatherlink.com 1.10,2013-05-11 13:25:00,
2013-05-11 09:40:00,77.5,71.0,29.95,West,261,4.0,4.0,79,0.00,,,0.00,weatherlink.com 1.10,2013-05-11 13:40:00,
2013-05-11 09:55:00,78.7,71.0,29.95,SSW,201,1.0,4.0,77,0.00,,,0.00,weatherlink.com 1.10,2013-05-11 13:55:00,
2013-05-11 10:10:00,79.3,71.0,29.95,WSW,237,2.0,6.0,75,0.00,,,0.00,weatherlink.com 1.10,2013-05-11 14:10:00,
2013-05-11 10:25:00,79.1,71.0,29.95,West,274,1.0,5.0,75,0.00,,,0.00,weatherlink.com 1.10,2013-05-11 14:25:00,
2013-05-11 10:40:00,79.9,70.0,29.95,West,280,2.0,8.0,72,0.00,,,0.00,weatherlink.com 1.10,2013-05-11 14:40:00,
2013-05-11 10:55:00,80.8,69.0,29.94,West,278,3.0,8.0,67,0.00,,,0.00,weatherlink.com 1.10,2013-05-11 14:55:00,
2013-05-11 11:10:00,81.4,68.0,29.94,WSW,240,2.0,6.0,64,0.00,,,0.00,weatherlink.com 1.10,2013-05-11 15:10:00,
2013-05-11 11:25:00,82.1,64.0,29.94,SSE,157,2.0,7.0,55,0.00,,,0.00,weatherlink.com 1.10,2013-05-11 15:25:00,
2013-05-11 11:40:00,83.1,64.0,29.94,SSW,206,1.0,8.0,52,0.00,,,0.00,weatherlink.com 1.10,2013-05-11 15:40:00,
2013-05-11 11:55:00,83.6,65.0,29.94,WSW,243,2.0,9.0,53,0.00,,,0.00,weatherlink.com 1.10,2013-05-11 15:55:00,
2013-05-11 12:10:00,82.8,63.0,29.95,NW,307,7.0,9.0,51,0.00,,,0.00,weatherlink.com 1.10,2013-05-11 16:10:00,
2013-05-11 12:26:00,81.3,62.0,29.94,NNW,331,5.0,7.0,52,0.00,,,0.00,weatherlink.com 1.10,2013-05-11 16:26:00,
2013-05-11 12:40:00,80.7,63.0,29.93,WNW,299,3.0,9.0,56,0.00,,,0.00,weatherlink.com 1.10,2013-05-11 16:40:00,
2013-05-11 12:55:00,80.7,63.0,29.93,NW,305,4.0,8.0,56,0.00,,,0.00,weatherlink.com 1.10,2013-05-11 16:55:00,
2013-05-11 13:10:00,81.0,63.0,29.92,NW,306,5.0,9.0,55,0.00,,,0.00,weatherlink.com 1.10,2013-05-11 17:10:00,
2013-05-11 13:25:00,81.2,64.0,29.92,West,262,0.0,5.0,57,0.00,,,0.00,weatherlink.com 1.10,2013-05-11 17:25:00,
2013-05-11 13:40:00,81.2,61.0,29.92,West,278,3.0,4.0,51,0.00,,,0.00,weatherlink.com 1.10,2013-05-11 17:40:00,
2013-05-11 13:55:00,81.5,63.0,29.91,WSW,255,2.0,5.0,53,0.00,,,0.00,weatherlink.com 1.10,2013-05-11 17:55:00,
2013-05-11 14:10:00,82.2,63.0,29.90,WSW,248,3.0,8.0,52,0.00,,,0.00,weatherlink.com 1.10,2013-05-11 18:10:00,
2013-05-11 14:25:00,82.1,63.0,29.89,SW,230,3.0,7.0,52,0.00,,,0.00,weatherlink.com 1.10,2013-05-11 18:25:00,
2013-05-11 14:41:00,83.3,63.0,29.89,WSW,239,3.0,8.0,50,0.00,,,0.00,weatherlink.com 1.10,2013-05-11 18:41:00,
2013-05-11 14:56:00,83.8,65.0,29.88,SW,236,1.0,10.0,53,0.00,,,0.00,weatherlink.com 1.10,2013-05-11 18:56:00,
2013-05-11 15:11:00,83.7,65.0,29.88,West,268,1.0,6.0,53,0.00,,,0.00,weatherlink.com 1.10,2013-05-11 19:11:00,
2013-05-11 15:26:00,83.0,64.0,29.87,West,274,3.0,7.0,53,0.00,,,0.00,weatherlink.com 1.10,2013-05-11 19:26:00,
2013-05-11 15:41:00,82.7,69.0,29.86,SW,215,2.0,8.0,64,0.00,,,0.00,weatherlink.com 1.10,2013-05-11 19:41:00,
2013-05-11 15:56:00,82.0,69.0,29.86,South,178,3.0,8.0,65,0.00,,,0.00,weatherlink.com 1.10,2013-05-11 19:56:00,
2013-05-11 16:11:00,81.6,69.0,29.86,East,82,2.0,8.0,65,0.00,,,0.00,weatherlink.com 1.10,2013-05-11 20:11:00,
2013-05-11 16:26:00,82.4,69.0,29.86,SSE,168,1.0,5.0,65,0.00,,,0.00,weatherlink.com 1.10,2013-05-11 20:26:00,
2013-05-11 16:41:00,82.9,66.0,29.86,WNW,282,3.0,5.0,56,0.00,,,0.00,weatherlink.com 1.10,2013-05-11 20:41:00,
2013-05-11 16:56:00,82.7,68.0,29.86,SW,230,1.0,7.0,62,0.00,,,0.00,weatherlink.com 1.10,2013-05-11 20:56:00,
2013-05-11 17:11:00,82.6,69.0,29.86,SW,225,2.0,7.0,64,0.00,,,0.00,weatherlink.com 1.10,2013-05-11 21:11:00,
2013-05-11 17:26:00,81.3,67.0,29.85,West,274,4.0,4.0,63,0.00,,,0.00,weatherlink.com 1.10,2013-05-11 21:26:00,
2013-05-11 17:41:00,81.1,68.0,29.85,SSW,213,4.0,8.0,64,0.00,,,0.00,weatherlink.com 1.10,2013-05-11 21:41:00,
2013-05-11 17:56:00,79.6,67.0,29.86,SW,235,5.0,8.0,66,0.00,,,0.00,weatherlink.com 1.10,2013-05-11 21:56:00,
2013-05-11 18:11:00,78.9,67.0,29.86,West,277,3.0,5.0,66,0.00,,,0.00,weatherlink.com 1.10,2013-05-11 22:11:00,
2013-05-11 18:26:00,78.2,67.0,29.86,SW,220,0.0,7.0,68,0.00,,,0.00,weatherlink.com 1.10,2013-05-11 22:26:00,
2013-05-11 18:41:00,77.7,66.0,29.86,SSW,210,3.0,7.0,68,0.00,,,0.00,weatherlink.com 1.10,2013-05-11 22:41:00,
2013-05-11 18:56:00,77.2,66.0,29.86,SW,228,2.0,6.0,69,0.00,,,0.00,weatherlink.com 1.10,2013-05-11 22:56:00,
2013-05-11 19:11:00,76.4,67.0,29.86,SE,133,2.0,3.0,72,0.00,,,0.00,weatherlink.com 1.10,2013-05-11 23:11:00,
2013-05-11 19:26:00,75.0,67.0,29.86,SW,216,1.0,5.0,75,0.00,,,0.00,weatherlink.com 1.10,2013-05-11 23:26:00,
2013-05-11 19:41:00,74.2,67.0,29.87,WSW,241,3.0,3.0,77,0.00,,,0.00,weatherlink.com 1.10,2013-05-11 23:41:00,
2013-05-11 19:56:00,73.7,66.0,29.87,SW,232,0.0,3.0,78,0.00,,,0.00,weatherlink.com 1.10,2013-05-11 23:56:00,
2013-05-11 20:11:00,73.7,66.0,29.87,SW,226,1.0,8.0,76,0.00,,,0.00,weatherlink.com 1.10,2013-05-12 00:11:00,
2013-05-11 20:26:00,73.8,65.0,29.87,WSW,253,0.0,5.0,75,0.00,,,0.00,weatherlink.com 1.10,2013-05-12 00:26:00,
2013-05-11 20:41:00,73.6,66.0,29.87,SSW,210,3.0,5.0,76,0.00,,,0.00,weatherlink.com 1.10,2013-05-12 00:41:00,
2013-05-11 20:56:00,73.2,66.0,29.87,WSW,257,0.0,4.0,77,0.00,,,0.00,weatherlink.com 1.10,2013-05-12 00:56:00,
2013-05-11 21:11:00,72.9,66.0,29.87,SW,236,4.0,6.0,79,0.00,,,0.00,weatherlink.com 1.10,2013-05-12 01:11:00,
2013-05-11 21:26:00,72.7,66.0,29.88,SW,225,2.0,4.0,80,0.00,,,0.00,weatherlink.com 1.10,2013-05-12 01:26:00,
2013-05-11 21:41:00,72.5,67.0,29.88,SW,220,5.0,7.0,82,0.00,,,0.00,weatherlink.com 1.10,2013-05-12 01:41:00,
2013-05-11 21:56:00,72.2,67.0,29.89,SW,229,2.0,5.0,83,0.00,,,0.00,weatherlink.com 1.10,2013-05-12 01:56:00,
2013-05-11 22:11:00,72.0,67.0,29.89,West,261,2.0,8.0,84,0.00,,,0.00,weatherlink.com 1.10,2013-05-12 02:11:00,
2013-05-11 22:26:00,72.0,67.0,29.89,WSW,251,1.0,5.0,84,0.00,,,0.00,weatherlink.com 1.10,2013-05-12 02:26:00,
2013-05-11 22:41:00,71.8,67.0,29.89,SW,222,0.0,6.0,85,0.00,,,0.00,weatherlink.com 1.10,2013-05-12 02:41:00,
2013-05-11 22:56:00,71.7,67.0,29.88,West,271,0.0,4.0,85,0.00,,,0.00,weatherlink.com 1.10,2013-05-12 02:56:00,
2013-05-11 23:12:00,71.6,67.0,29.88,SSW,199,1.0,4.0,86,0.00,,,0.00,weatherlink.com 1.10,2013-05-12 03:12:00,
2013-05-11 23:26:00,71.5,67.0,29.88,West,268,0.0,3.0,86,0.00,,,0.00,weatherlink.com 1.10,2013-05-12 03:26:00,
2013-05-11 23:41:00,71.5,67.0,29.88,SSW,212,2.0,3.0,86,0.00,,,0.00,weatherlink.com 1.10,2013-05-12 03:41:00,
2013-05-11 23:56:00,71.5,67.0,29.88,SSW,213,1.0,3.0,86,0.00,,,0.00,weatherlink.com 1.10,2013-05-12 03:56:00,